Terminal Aerodrome Forecast
Issued by NWS

Home | Current Version | Previous Version | Text Only | Print | Product List | Glossary On
Versions: 1 2 3 4 5 6 7 8 9 10 11 12 13 14 15 16 17 18 19 20 21
000
FTUS43 KGRR 251100
TAFJXN
TAF
KJXN 251140Z 2512/2612 05012KT 5SM BR OVC008
      TEMPO 2512/2516 3SM -SHSN OVC005
     FM251800 06012KT 4SM -SHSN BR OVC011
     FM252100 04011KT 6SM BR OVC015
     FM260300 03007KT P6SM BKN025=

USA.gov is the U.S. government's official web portal to all federal, state and local government web resources and services.